Time;durP1;ratioP1;P1;durP2;ratioP2;P2;SDS_P1;SDS_P2;PMS_P1;PMS_P2;Temp;Humidity;BMP_temperature;BMP_pressure;BME280_temperature;BME280_humidity;BME280_pressure;Samples;Min_cycle;Max_cycle;Signal;HPM_P1;HPM_P2
2022/07/03 00:01:49;;;;;;;2.42;1.60;;;21.00;93.20;;;;;;5017719;28;20113;-86
2022/07/03 00:04:15;;;;;;;2.50;1.48;;;20.90;93.60;;;;;;5017342;28;20029;-87
2022/07/03 00:06:41;;;;;;;2.88;1.95;;;20.80;93.90;;;;;;5033655;28;20112;-90
2022/07/03 00:09:06;;;;;;;1.55;1.17;;;20.80;94.30;;;;;;5031166;28;20467;-87
2022/07/03 00:11:33;;;;;;;2.45;1.40;;;20.80;94.70;;;;;;5025389;28;20363;-89
2022/07/03 00:13:59;;;;;;;2.10;1.50;;;20.80;95.10;;;;;;5024010;28;20030;-87
2022/07/03 00:16:25;;;;;;;2.72;1.30;;;20.70;95.40;;;;;;5033480;28;20033;-87
2022/07/03 00:18:51;;;;;;;3.00;1.23;;;20.70;95.60;;;;;;5016779;28;20050;-88
2022/07/03 00:21:20;;;;;;;2.40;1.48;;;20.70;95.90;;;;;;5016782;28;20025;-87
2022/07/03 00:23:54;;;;;;;3.20;1.50;;;20.60;96.20;;;;;;5015858;28;20033;-87
2022/07/03 00:26:21;;;;;;;2.45;1.33;;;20.60;96.60;;;;;;5033040;28;20068;-89
2022/07/03 00:28:47;;;;;;;2.33;1.38;;;20.60;96.70;;;;;;5021121;28;20025;-88
2022/07/03 00:31:13;;;;;;;1.80;1.40;;;20.50;96.90;;;;;;5027515;28;20430;-85
2022/07/03 00:33:40;;;;;;;2.50;1.40;;;20.50;97.20;;;;;;5026095;28;20028;-91
2022/07/03 00:36:07;;;;;;;3.97;1.80;;;20.50;97.50;;;;;;5027974;28;20040;-90
2022/07/03 00:38:32;;;;;;;3.35;1.80;;;20.40;97.60;;;;;;5035769;28;20091;-90
2022/07/03 00:40:59;;;;;;;1.60;1.08;;;20.40;97.90;;;;;;5031905;28;20025;-88
2022/07/03 00:43:26;;;;;;;2.17;1.63;;;20.30;98.10;;;;;;5023944;28;20065;-89
2022/07/03 00:45:53;;;;;;;4.50;1.77;;;20.30;98.30;;;;;;5028672;28;20439;-87
2022/07/03 00:48:20;;;;;;;3.15;1.90;;;20.20;98.50;;;;;;5036073;28;20091;-87
2022/07/03 00:50:51;;;;;;;4.40;1.80;;;20.20;98.80;;;;;;5032724;28;20418;-85
2022/07/03 00:53:33;;;;;;;1.92;1.60;;;20.20;98.90;;;;;;5030585;28;20013;-87
2022/07/03 00:56:00;;;;;;;2.38;1.38;;;20.20;98.90;;;;;;5031402;28;20188;-87
2022/07/03 00:58:27;;;;;;;4.90;1.80;;;20.20;98.90;;;;;;5033407;28;20022;-87
2022/07/03 01:00:54;;;;;;;2.83;1.42;;;20.20;99.00;;;;;;5015318;28;20037;-87
2022/07/03 01:03:24;;;;;;;2.70;1.60;;;20.10;99.20;;;;;;5019420;28;20056;-88
2022/07/03 01:05:53;;;;;;;2.55;1.60;;;20.10;99.50;;;;;;5014796;28;20037;-88
2022/07/03 01:08:47;;;;;;;1.75;1.50;;;20.00;99.60;;;;;;5015414;28;20038;-88
2022/07/03 01:11:41;;;;;;;2.55;1.60;;;20.10;99.90;;;;;;5031813;28;20060;-89
2022/07/03 01:14:33;;;;;;;3.63;1.85;;;20.10;99.90;;;;;;5022872;28;20059;-88
2022/07/03 01:16:58;;;;;;;;;;;20.00;99.90;;;;;;5026091;28;20496;-88
2022/07/03 01:19:27;;;;;;;4.80;1.40;;;20.00;99.90;;;;;;5031041;28;19905;-88
2022/07/03 01:21:52;;;;;;;2.25;1.40;;;20.00;99.90;;;;;;5020561;28;20088;-88
2022/07/03 01:25:08;;;;;;;1.45;1.17;;;20.00;99.90;;;;;;5034889;28;20033;-87
2022/07/03 01:27:46;;;;;;;3.03;1.45;;;19.90;99.90;;;;;;4998226;28;20479;-87
2022/07/03 01:30:12;;;;;;;1.83;1.30;;;19.80;99.90;;;;;;5015194;28;20030;-87
2022/07/03 01:33:01;;;;;;;1.40;1.30;;;19.80;99.90;;;;;;5015305;28;20030;-88
2022/07/03 01:35:32;;;;;;;3.00;1.17;;;19.80;99.90;;;;;;5022858;28;20029;-85
2022/07/03 01:38:03;;;;;;;1.52;1.05;;;19.80;99.90;;;;;;5034779;28;20172;-84
2022/07/03 01:40:29;;;;;;;1.60;1.17;;;19.70;99.90;;;;;;5028977;28;20095;-84
2022/07/03 01:42:54;;;;;;;1.40;1.13;;;19.80;99.90;;;;;;5027889;28;20554;-85
2022/07/03 01:45:23;;;;;;;1.42;0.98;;;19.80;99.90;;;;;;5028771;28;20058;-85
2022/07/03 01:47:50;;;;;;;1.45;0.80;;;19.70;99.90;;;;;;5026807;28;20026;-88
2022/07/03 01:50:16;;;;;;;0.82;0.80;;;19.70;99.90;;;;;;5032194;28;20116;-88
2022/07/03 01:52:44;;;;;;;2.83;1.00;;;19.70;99.90;;;;;;5031780;28;20108;-91
2022/07/03 01:55:13;;;;;;;1.00;0.90;;;19.70;99.90;;;;;;5024346;28;20087;-88
2022/07/03 01:57:41;;;;;;;1.13;0.80;;;19.70;99.90;;;;;;5019813;28;20085;-88
2022/07/03 02:00:08;;;;;;;1.42;1.25;;;19.70;99.90;;;;;;5028347;28;20033;-87
2022/07/03 02:02:39;;;;;;;3.63;0.90;;;19.60;99.90;;;;;;5017501;28;20040;-87
2022/07/03 02:05:23;;;;;;;1.92;0.80;;;19.70;99.90;;;;;;5015628;28;20030;-87
2022/07/03 02:08:12;;;;;;;2.28;0.95;;;19.60;99.90;;;;;;5013809;28;20022;-88
2022/07/03 02:10:46;;;;;;;3.72;1.00;;;19.70;99.90;;;;;;5013379;28;20042;-91
2022/07/03 02:13:17;;;;;;;2.60;1.10;;;19.70;99.90;;;;;;5028328;28;20113;-87
2022/07/03 02:15:45;;;;;;;3.83;0.93;;;19.70;99.90;;;;;;5023272;28;20040;-88
2022/07/03 02:18:29;;;;;;;1.92;1.10;;;19.60;99.90;;;;;;5021633;28;20044;-87
2022/07/03 02:21:12;;;;;;;1.17;0.90;;;19.60;99.90;;;;;;5017907;28;20045;-87
2022/07/03 02:24:01;;;;;;;2.20;0.80;;;19.50;99.90;;;;;;5035374;28;20032;-88
2022/07/03 02:26:33;;;;;;;1.05;0.80;;;19.50;99.90;;;;;;5033259;28;20026;-88
2022/07/03 02:29:03;;;;;;;1.17;0.90;;;19.50;99.90;;;;;;5034502;28;20666;-87
2022/07/03 02:31:38;;;;;;;2.03;0.90;;;19.50;99.90;;;;;;5026961;28;20026;-86
2022/07/03 02:34:06;;;;;;;1.73;1.13;;;19.50;99.90;;;;;;5013664;28;20079;-87
2022/07/03 02:36:34;;;;;;;2.92;1.00;;;19.50;99.90;;;;;;5030656;28;20037;-88
2022/07/03 02:39:00;;;;;;;2.88;0.80;;;19.50;99.90;;;;;;5033478;28;20466;-88
2022/07/03 02:41:52;;;;;;;1.20;1.00;;;19.50;99.90;;;;;;5033214;28;20040;-88
2022/07/03 02:44:47;;;;;;;1.08;0.80;;;19.50;99.90;;;;;;5024622;28;20057;-86
2022/07/03 02:47:33;;;;;;;1.10;1.00;;;19.50;99.90;;;;;;5019436;28;20030;-89
2022/07/03 02:50:09;;;;;;;1.60;1.10;;;19.40;99.90;;;;;;5020609;28;20048;-88
2022/07/03 02:52:38;;;;;;;1.55;1.20;;;19.40;99.90;;;;;;5013102;28;20045;-87
2022/07/03 02:55:44;;;;;;;1.33;1.02;;;19.30;99.90;;;;;;5017745;28;20071;-87
2022/07/03 02:58:13;;;;;;;1.98;1.30;;;19.30;99.90;;;;;;5033528;28;20084;-86
2022/07/03 03:00:51;;;;;;;1.95;1.17;;;19.30;99.90;;;;;;5031575;28;20021;-88
2022/07/03 03:03:22;;;;;;;1.55;1.15;;;19.20;99.90;;;;;;5013230;28;20030;-88
2022/07/03 03:05:53;;;;;;;1.42;1.20;;;19.20;99.90;;;;;;5013262;28;20041;-88
2022/07/03 03:08:39;;;;;;;1.35;0.98;;;19.20;99.90;;;;;;5028173;28;20053;-88
2022/07/03 03:11:16;;;;;;;1.20;1.10;;;19.20;99.90;;;;;;5014582;28;20025;-87
2022/07/03 03:13:49;;;;;;;1.77;1.30;;;19.20;99.90;;;;;;5012578;28;20534;-90
2022/07/03 03:16:15;;;;;;;2.95;1.10;;;19.10;99.90;;;;;;5023736;28;20034;-87
2022/07/03 03:18:42;;;;;;;1.30;1.20;;;19.10;99.90;;;;;;5044301;28;20030;-91
2022/07/03 03:21:17;;;;;;;1.33;1.20;;;19.10;99.90;;;;;;5027314;28;20025;-88
2022/07/03 03:23:53;;;;;;;1.27;1.15;;;19.10;99.90;;;;;;5022956;28;20025;-88
2022/07/03 03:26:25;;;;;;;2.58;1.30;;;19.10;99.90;;;;;;5031817;28;20068;-87
2022/07/03 03:28:51;;;;;;;1.70;1.13;;;19.10;99.90;;;;;;5015380;28;20051;-88
2022/07/03 03:31:19;;;;;;;2.35;1.40;;;19.10;99.90;;;;;;5032839;28;20490;-87
2022/07/03 03:33:49;;;;;;;3.92;1.13;;;19.10;99.90;;;;;;5033662;28;20120;-88
2022/07/03 03:36:17;;;;;;;1.77;1.13;;;19.10;99.90;;;;;;5032856;28;20029;-87
2022/07/03 03:38:43;;;;;;;1.25;1.00;;;19.10;99.90;;;;;;5014872;28;20026;-90
2022/07/03 03:41:09;;;;;;;1.48;1.13;;;19.10;99.90;;;;;;5014661;28;20037;-88
2022/07/03 03:43:35;;;;;;;3.35;1.00;;;19.10;99.90;;;;;;5013294;28;20030;-87
2022/07/03 03:46:02;;;;;;;1.75;1.20;;;19.00;99.90;;;;;;5012711;28;20057;-87
2022/07/03 03:48:28;;;;;;;3.17;1.20;;;19.00;99.90;;;;;;5014355;28;20451;-88
2022/07/03 03:50:58;;;;;;;1.92;1.75;;;19.00;99.90;;;;;;5013207;28;20064;-88
2022/07/03 03:53:25;;;;;;;1.65;1.10;;;19.00;99.90;;;;;;5013174;28;20029;-88
2022/07/03 03:55:59;;;;;;;1.60;1.10;;;19.00;99.90;;;;;;5013700;28;20041;-88
2022/07/03 03:58:25;;;;;;;1.60;0.90;;;19.00;99.90;;;;;;5014601;28;20022;-87
2022/07/03 04:00:53;;;;;;;1.83;1.10;;;19.00;99.90;;;;;;5012968;28;20471;-88
2022/07/03 04:03:18;;;;;;;1.40;1.10;;;19.00;99.90;;;;;;5014122;28;20022;-88
2022/07/03 04:05:44;;;;;;;1.48;1.00;;;18.90;99.90;;;;;;5012794;28;20034;-88
2022/07/03 04:08:10;;;;;;;1.48;1.17;;;18.90;99.90;;;;;;5014212;28;20511;-89
2022/07/03 04:10:36;;;;;;;3.35;1.38;;;18.90;99.90;;;;;;5030515;28;20022;-88
2022/07/03 04:13:01;;;;;;;1.13;0.95;;;18.90;99.90;;;;;;5012622;28;20087;-90
2022/07/03 04:15:27;;;;;;;1.85;1.58;;;18.90;99.90;;;;;;5013305;28;20041;-88
2022/07/03 04:17:52;;;;;;;1.88;1.10;;;18.90;99.90;;;;;;5012585;28;20493;-87
2022/07/03 04:20:18;;;;;;;2.50;1.05;;;18.90;99.90;;;;;;5029037;28;20056;-87
2022/07/03 04:22:44;;;;;;;2.08;1.20;;;18.90;99.90;;;;;;5032465;28;20068;-87
2022/07/03 04:25:09;;;;;;;2.30;1.10;;;18.90;99.90;;;;;;5027553;28;20026;-87
2022/07/03 04:27:35;;;;;;;3.85;1.42;;;18.90;99.90;;;;;;5012912;28;20022;-87
2022/07/03 04:30:01;;;;;;;1.70;0.98;;;18.90;99.90;;;;;;5016396;28;20096;-87
2022/07/03 04:32:26;;;;;;;1.67;1.27;;;18.90;99.90;;;;;;5032428;28;20025;-88
2022/07/03 04:34:52;;;;;;;3.15;1.33;;;18.90;99.90;;;;;;5036737;28;20038;-89
2022/07/03 04:37:17;;;;;;;1.90;1.70;;;18.90;99.90;;;;;;5029746;28;20080;-88
2022/07/03 04:39:43;;;;;;;1.98;1.38;;;18.90;99.90;;;;;;5016334;28;20470;-87
2022/07/03 04:42:09;;;;;;;4.18;1.60;;;18.90;99.90;;;;;;5017647;28;20034;-87
2022/07/03 04:44:34;;;;;;;3.28;1.65;;;18.90;99.90;;;;;;5026815;28;20137;-87
2022/07/03 04:47:00;;;;;;;2.85;1.15;;;18.90;99.90;;;;;;5035416;28;20136;-87
2022/07/03 04:49:26;;;;;;;3.83;1.40;;;18.90;99.90;;;;;;5037005;28;20026;-87
2022/07/03 04:51:53;;;;;;;1.77;1.30;;;18.90;99.90;;;;;;5035600;28;20048;-88
2022/07/03 04:54:18;;;;;;;1.83;1.55;;;19.00;99.90;;;;;;5035914;28;20029;-87
2022/07/03 04:56:44;;;;;;;3.00;1.30;;;19.00;99.90;;;;;;5036350;28;20030;-88
2022/07/03 04:59:10;;;;;;;3.42;1.50;;;19.00;99.90;;;;;;5027043;28;20465;-88
2022/07/03 05:01:35;;;;;;;1.52;1.10;;;19.00;99.90;;;;;;5016165;28;20025;-88
2022/07/03 05:04:01;;;;;;;2.10;1.80;;;19.00;99.90;;;;;;5015540;28;20065;-88
2022/07/03 05:06:26;;;;;;;5.30;1.52;;;19.10;99.90;;;;;;5015555;28;20061;-89
2022/07/03 05:08:52;;;;;;;1.80;1.40;;;19.10;99.90;;;;;;5015123;28;20534;-89
2022/07/03 05:11:18;;;;;;;1.58;1.30;;;19.10;99.90;;;;;;5020636;28;20100;-88
2022/07/03 05:13:43;;;;;;;11.63;1.60;;;19.10;99.90;;;;;;5027756;28;20381;-89
2022/07/03 05:16:09;;;;;;;2.08;1.40;;;19.10;99.90;;;;;;5021737;28;20121;-88
2022/07/03 05:18:35;;;;;;;2.35;1.30;;;19.20;99.90;;;;;;5019534;28;20105;-88
2022/07/03 05:21:02;;;;;;;2.53;1.30;;;19.20;99.90;;;;;;5015087;28;20076;-86
2022/07/03 05:23:27;;;;;;;3.03;1.42;;;19.20;99.90;;;;;;5015599;28;20026;-86
2022/07/03 05:25:55;;;;;;;1.92;1.30;;;19.20;99.90;;;;;;5028085;28;20398;-86
2022/07/03 05:28:20;;;;;;;2.28;1.38;;;19.30;99.90;;;;;;5020383;28;20026;-85
2022/07/03 05:30:46;;;;;;;2.25;1.33;;;19.30;99.90;;;;;;5015895;28;20030;-86
2022/07/03 05:33:12;;;;;;;2.58;1.25;;;19.30;99.90;;;;;;5015712;28;20030;-88
2022/07/03 05:35:37;;;;;;;1.42;1.15;;;19.40;99.90;;;;;;5015256;28;20041;-87
2022/07/03 05:38:03;;;;;;;1.45;1.08;;;19.40;99.90;;;;;;5030756;28;20037;-86
2022/07/03 05:40:28;;;;;;;1.73;1.23;;;19.40;99.90;;;;;;5034385;28;20045;-87
2022/07/03 05:42:54;;;;;;;2.92;1.33;;;19.50;99.90;;;;;;5035601;28;20033;-88
2022/07/03 05:45:20;;;;;;;1.58;0.90;;;19.50;99.90;;;;;;5036289;28;20084;-87
2022/07/03 05:47:45;;;;;;;1.60;1.10;;;19.60;99.90;;;;;;5034255;28;20025;-87
2022/07/03 05:50:11;;;;;;;6.15;1.13;;;19.60;99.90;;;;;;5034852;28;20025;-84
2022/07/03 05:52:37;;;;;;;2.88;1.60;;;19.60;99.90;;;;;;5034704;28;20450;-85
2022/07/03 05:55:04;;;;;;;3.85;1.40;;;19.70;99.90;;;;;;5034231;28;20034;-85
2022/07/03 05:57:29;;;;;;;2.67;1.33;;;19.70;99.90;;;;;;5034554;28;20076;-84
2022/07/03 05:59:55;;;;;;;2.42;1.80;;;19.80;99.90;;;;;;5035236;28;20076;-84
2022/07/03 06:02:21;;;;;;;1.48;1.20;;;19.80;99.90;;;;;;5034777;28;20033;-85
2022/07/03 06:04:46;;;;;;;1.85;1.40;;;19.90;99.90;;;;;;5035681;28;20036;-86
2022/07/03 06:07:12;;;;;;;2.85;1.48;;;19.90;99.90;;;;;;5035635;28;20029;-86
2022/07/03 06:09:38;;;;;;;1.95;1.40;;;19.90;99.90;;;;;;5034267;28;20025;-87
2022/07/03 06:12:04;;;;;;;1.02;0.93;;;19.90;99.90;;;;;;5034128;28;20116;-87
2022/07/03 06:14:30;;;;;;;3.60;1.00;;;19.90;99.90;;;;;;5034625;28;20454;-86
2022/07/03 06:16:55;;;;;;;2.22;1.40;;;20.00;99.90;;;;;;5033845;28;20083;-87
2022/07/03 06:19:21;;;;;;;3.88;1.48;;;20.10;99.90;;;;;;5035210;28;20030;-87
2022/07/03 06:21:46;;;;;;;1.50;1.15;;;20.10;99.90;;;;;;5033835;28;20021;-87
2022/07/03 06:24:12;;;;;;;2.45;1.17;;;20.20;99.90;;;;;;5035244;28;20032;-87
2022/07/03 06:26:38;;;;;;;1.58;1.20;;;20.20;99.90;;;;;;5034218;28;20025;-87
2022/07/03 06:29:03;;;;;;;2.05;0.90;;;20.30;99.90;;;;;;5029288;28;20104;-87
2022/07/03 06:31:30;;;;;;;1.70;1.30;;;20.30;99.90;;;;;;5015559;28;20471;-87
2022/07/03 06:33:55;;;;;;;3.00;1.20;;;20.40;99.90;;;;;;5034572;28;20018;-86
2022/07/03 06:36:21;;;;;;;9.93;1.33;;;20.50;99.90;;;;;;5034045;28;20039;-87
2022/07/03 06:38:46;;;;;;;1.40;1.27;;;20.50;99.90;;;;;;5033572;28;20040;-88
2022/07/03 06:41:12;;;;;;;3.17;1.67;;;20.60;99.90;;;;;;5034022;28;20112;-87
2022/07/03 06:43:39;;;;;;;2.70;1.40;;;20.60;99.90;;;;;;5034973;28;20104;-87
2022/07/03 06:46:05;;;;;;;3.13;1.30;;;20.70;99.90;;;;;;5032821;28;20049;-87
2022/07/03 06:48:30;;;;;;;3.30;1.40;;;20.80;99.90;;;;;;5023150;28;20363;-88
2022/07/03 06:50:56;;;;;;;3.47;1.25;;;20.90;99.90;;;;;;5017955;28;20092;-88
2022/07/03 06:53:21;;;;;;;2.92;1.20;;;20.90;99.90;;;;;;5027729;28;20026;-87
2022/07/03 06:55:47;;;;;;;3.80;1.80;;;21.00;99.90;;;;;;5028305;28;20398;-89
2022/07/03 06:58:14;;;;;;;2.85;1.48;;;21.00;99.90;;;;;;5022739;28;20474;-87
2022/07/03 07:00:40;;;;;;;1.85;1.27;;;21.10;99.90;;;;;;5030008;28;20036;-89
2022/07/03 07:03:05;;;;;;;3.55;1.30;;;21.20;99.90;;;;;;5027212;28;20021;-87
2022/07/03 07:05:31;;;;;;;2.20;0.82;;;21.20;99.90;;;;;;5018159;28;20037;-88
2022/07/03 07:07:57;;;;;;;1.25;0.75;;;21.30;99.90;;;;;;5021660;28;20025;-86
2022/07/03 07:10:22;;;;;;;3.10;1.20;;;21.30;99.90;;;;;;5022808;28;20092;-87
2022/07/03 07:12:49;;;;;;;1.05;0.57;;;21.40;99.90;;;;;;5015922;28;20057;-87
2022/07/03 07:15:14;;;;;;;0.85;0.80;;;21.40;99.90;;;;;;5018720;28;20121;-87
2022/07/03 07:17:40;;;;;;;2.20;0.93;;;21.50;99.90;;;;;;5013710;28;20751;-90
2022/07/03 07:20:07;;;;;;;3.30;0.75;;;21.60;99.80;;;;;;5022847;28;20112;-87
2022/07/03 07:22:33;;;;;;;4.03;0.80;;;21.70;99.90;;;;;;5022012;28;20064;-88
2022/07/03 07:24:58;;;;;;;1.83;1.40;;;21.80;99.90;;;;;;5026979;28;20029;-88
2022/07/03 07:27:24;;;;;;;1.95;0.82;;;21.80;99.00;;;;;;5024819;28;20030;-88
2022/07/03 07:29:49;;;;;;;0.90;0.68;;;21.80;98.90;;;;;;5021413;28;20037;-87
2022/07/03 07:32:16;;;;;;;1.35;0.60;;;21.90;98.30;;;;;;5023163;28;20041;-85
2022/07/03 07:34:41;;;;;;;2.63;0.50;;;22.00;97.40;;;;;;5016404;28;20463;-88
2022/07/03 07:37:08;;;;;;;1.77;0.70;;;22.10;96.80;;;;;;5017093;28;20043;-86
2022/07/03 07:39:33;;;;;;;0.95;0.60;;;22.10;97.20;;;;;;5024399;28;20044;-88
2022/07/03 07:41:59;;;;;;;2.15;0.55;;;22.20;97.00;;;;;;5015146;28;20038;-88
2022/07/03 07:44:24;;;;;;;3.50;0.70;;;22.20;97.20;;;;;;5013190;28;20108;-87
2022/07/03 07:46:50;;;;;;;2.00;0.57;;;22.30;97.10;;;;;;5013164;28;20095;-86
2022/07/03 07:49:16;;;;;;;1.55;0.65;;;22.50;95.90;;;;;;5014293;28;20026;-87
2022/07/03 07:51:41;;;;;;;0.82;0.50;;;22.50;95.10;;;;;;5014624;28;20034;-89
2022/07/03 07:54:07;;;;;;;1.92;0.75;;;22.60;95.40;;;;;;5025925;28;20036;-85
2022/07/03 07:56:33;;;;;;;1.42;0.52;;;22.60;95.20;;;;;;5018414;28;20529;-86
2022/07/03 07:58:58;;;;;;;1.23;0.50;;;22.60;94.80;;;;;;5033539;28;20026;-85
2022/07/03 08:06:52;;;;;;;1.42;0.47;;;22.80;95.90;;;;;;5037037;28;20060;-89
2022/07/03 08:09:18;;;;;;;1.48;0.38;;;22.80;95.40;;;;;;5030207;28;20022;-86
2022/07/03 08:11:44;;;;;;;2.38;0.60;;;22.90;95.30;;;;;;5017725;28;20029;-88
2022/07/03 08:14:10;;;;;;;1.13;0.47;;;22.80;95.30;;;;;;5016604;28;20025;-86
2022/07/03 08:16:38;;;;;;;1.70;0.57;;;22.90;95.60;;;;;;5018079;28;20041;-87
2022/07/03 08:19:03;;;;;;;0.90;0.60;;;22.90;95.20;;;;;;5017215;28;20033;-86
2022/07/03 08:21:29;;;;;;;1.30;0.50;;;22.90;94.50;;;;;;5033337;28;20045;-86
2022/07/03 08:23:55;;;;;;;3.15;0.57;;;22.90;94.30;;;;;;5032633;28;20064;-86
2022/07/03 08:26:20;;;;;;;2.38;0.50;;;23.00;93.40;;;;;;5031610;28;20111;-86
2022/07/03 08:28:46;;;;;;;1.77;0.73;;;23.00;92.60;;;;;;5021817;28;20135;-87
2022/07/03 08:31:12;;;;;;;2.55;0.90;;;23.00;92.80;;;;;;5030620;28;20109;-86
2022/07/03 08:33:37;;;;;;;1.08;0.68;;;23.10;92.20;;;;;;5025009;28;20458;-86
2022/07/03 08:36:05;;;;;;;2.10;0.60;;;23.20;92.30;;;;;;5030376;28;20042;-86
2022/07/03 08:38:33;;;;;;;2.17;0.50;;;23.20;91.30;;;;;;5029611;28;20030;-88
2022/07/03 08:41:00;;;;;;;1.05;0.68;;;23.20;91.60;;;;;;5018798;28;20037;-87
2022/07/03 08:43:26;;;;;;;0.80;0.60;;;23.30;92.20;;;;;;5017662;28;20029;-87
2022/07/03 08:45:53;;;;;;;1.50;0.40;;;23.30;91.80;;;;;;5029675;28;20057;-87
2022/07/03 08:48:21;;;;;;;1.08;0.60;;;23.30;91.40;;;;;;5036153;28;20064;-86
2022/07/03 08:50:47;;;;;;;2.20;0.63;;;23.40;91.10;;;;;;5017133;28;20030;-87
2022/07/03 08:53:12;;;;;;;2.63;0.50;;;23.40;91.50;;;;;;5022727;28;20028;-86
2022/07/03 08:55:38;;;;;;;2.65;0.60;;;23.50;91.70;;;;;;5035765;28;20120;-88
2022/07/03 08:58:09;;;;;;;0.80;0.63;;;23.50;92.20;;;;;;5022400;28;20033;-87
2022/07/03 09:00:35;;;;;;;3.28;0.60;;;23.60;90.80;;;;;;5016021;28;20156;-86
2022/07/03 09:03:04;;;;;;;1.25;0.50;;;23.60;90.70;;;;;;5015612;28;20041;-86
2022/07/03 09:05:30;;;;;;;1.55;0.55;;;23.70;89.00;;;;;;5026867;28;20040;-86
2022/07/03 09:07:59;;;;;;;3.13;0.57;;;23.80;89.40;;;;;;5035652;28;20034;-86
2022/07/03 09:10:24;;;;;;;4.38;0.47;;;23.80;90.30;;;;;;5023007;28;20030;-86
2022/07/03 09:12:50;;;;;;;2.35;0.40;;;23.80;89.40;;;;;;5035381;28;20113;-87
2022/07/03 09:15:16;;;;;;;1.40;0.57;;;23.80;89.70;;;;;;5025459;28;20034;-87
2022/07/03 09:18:04;;;;;;;2.17;0.60;;;23.90;90.50;;;;;;5018990;28;20026;-89
2022/07/03 09:20:38;;;;;;;1.08;0.80;;;24.00;90.30;;;;;;5034581;28;20083;-88
2022/07/03 09:23:14;;;;;;;1.90;0.68;;;24.00;90.30;;;;;;5028511;28;20045;-90
2022/07/03 09:25:57;;;;;;;1.25;0.65;;;24.10;90.90;;;;;;5021215;28;20056;-92
2022/07/03 09:28:40;;;;;;;1.75;0.60;;;24.10;90.90;;;;;;5035411;28;20052;-88
2022/07/03 09:31:06;;;;;;;1.13;0.60;;;24.10;91.00;;;;;;5034655;28;20036;-89
2022/07/03 09:33:31;;;;;;;3.53;0.65;;;24.20;90.50;;;;;;5016570;28;20037;-88
2022/07/03 09:35:57;;;;;;;2.30;0.75;;;24.20;90.80;;;;;;5034312;28;20033;-88
2022/07/03 09:38:23;;;;;;;0.50;0.50;;;24.20;91.20;;;;;;5035041;28;20462;-88
2022/07/03 09:40:54;;;;;;;0.50;0.50;;;24.20;89.80;;;;;;5034347;28;20034;-87
2022/07/03 09:43:29;;;;;;;6.55;0.98;;;24.30;90.10;;;;;;5030271;28;20030;-88
2022/07/03 09:45:59;;;;;;;2.97;0.70;;;24.40;90.10;;;;;;5014380;28;20134;-89
2022/07/03 09:48:36;;;;;;;1.38;0.68;;;24.50;90.40;;;;;;5031620;28;20049;-88
2022/07/03 09:51:23;;;;;;;0.90;0.55;;;24.50;90.00;;;;;;5015263;28;20025;-89
2022/07/03 09:54:02;;;;;;;2.33;0.60;;;24.50;89.00;;;;;;5014230;28;20037;-89
2022/07/03 09:56:35;;;;;;;2.55;0.70;;;24.60;87.20;;;;;;5027774;28;20022;-89
2022/07/03 09:59:02;;;;;;;1.30;0.70;;;24.60;85.80;;;;;;5020315;28;20482;-89
2022/07/03 10:01:28;;;;;;;2.83;0.80;;;24.70;83.90;;;;;;5022686;28;20025;-91
2022/07/03 10:04:07;;;;;;;0.63;0.40;;;24.70;84.50;;;;;;5033309;28;20116;-90
2022/07/03 10:06:58;;;;;;;0.85;0.60;;;24.70;83.00;;;;;;5034240;28;20059;-90
2022/07/03 10:09:33;;;;;;;1.23;0.50;;;24.70;79.90;;;;;;5018817;28;20029;-90
2022/07/03 10:12:00;;;;;;;2.85;0.85;;;24.80;79.00;;;;;;5018493;28;20061;-91
2022/07/03 10:14:28;;;;;;;3.15;0.90;;;24.80;79.90;;;;;;5024564;28;20034;-91
2022/07/03 10:16:58;;;;;;;2.08;0.55;;;24.80;82.00;;;;;;5030017;28;20060;-91
2022/07/03 10:19:29;;;;;;;3.22;0.57;;;24.90;81.20;;;;;;5028848;28;20117;-90
2022/07/03 10:22:08;;;;;;;1.58;0.60;;;25.00;82.90;;;;;;5027069;28;20029;-90
2022/07/03 10:24:35;;;;;;;1.27;0.75;;;25.10;80.80;;;;;;5020421;28;20027;-90
2022/07/03 10:27:01;;;;;;;0.70;0.50;;;25.20;81.60;;;;;;5029129;28;20109;-89
2022/07/03 10:29:28;;;;;;;2.03;0.55;;;25.20;80.90;;;;;;5023081;28;20060;-90
2022/07/03 10:31:54;;;;;;;0.57;0.50;;;25.20;78.80;;;;;;5026680;28;20397;-89
2022/07/03 10:34:22;;;;;;;1.42;0.50;;;25.10;78.70;;;;;;5015586;28;20026;-90
2022/07/03 10:36:52;;;;;;;1.52;1.05;;;25.10;78.90;;;;;;5025899;28;20029;-89
2022/07/03 10:39:38;;;;;;;5.95;0.60;;;25.20;76.50;;;;;;5025007;28;20075;-89
2022/07/03 10:44:51;;;;;;;1.45;0.40;;;25.30;73.40;;;;;;5034252;28;20060;-89
2022/07/03 10:47:46;;;;;;;1.13;0.40;;;25.40;73.20;;;;;;5027849;28;20022;-90
2022/07/03 10:50:22;;;;;;;1.50;0.30;;;25.30;71.80;;;;;;5025043;28;20104;-89
2022/07/03 10:52:48;;;;;;;2.70;0.40;;;25.40;72.60;;;;;;5031374;28;20030;-90
2022/07/03 10:55:16;;;;;;;0.57;0.30;;;25.50;73.20;;;;;;5013639;28;20091;-89
2022/07/03 10:57:43;;;;;;;2.05;0.40;;;25.50;72.50;;;;;;5024269;28;20033;-90
2022/07/03 11:00:18;;;;;;;1.67;0.40;;;25.60;73.70;;;;;;5013690;28;20032;-88
2022/07/03 11:02:45;;;;;;;0.65;0.30;;;25.50;70.60;;;;;;5013426;28;20462;-90
2022/07/03 11:05:18;;;;;;;2.33;0.35;;;25.50;70.90;;;;;;5014826;28;20041;-89
2022/07/03 11:07:49;;;;;;;0.47;0.30;;;25.50;71.20;;;;;;5013787;28;20045;-90
2022/07/03 11:10:16;;;;;;;1.55;0.50;;;25.50;69.60;;;;;;5013300;28;20479;-89
2022/07/03 11:13:03;;;;;;;0.65;0.40;;;25.50;70.50;;;;;;5020770;28;20033;-89
2022/07/03 11:15:30;;;;;;;0.57;0.30;;;25.60;71.20;;;;;;5034172;28;20033;-89
2022/07/03 11:18:16;;;;;;;0.88;0.30;;;25.70;70.50;;;;;;5030860;28;20030;-89
2022/07/03 11:20:41;;;;;;;0.98;0.40;;;25.80;70.30;;;;;;5020987;28;20049;-90
2022/07/03 11:23:13;;;;;;;1.60;0.30;;;25.80;69.60;;;;;;5023016;28;20068;-89
2022/07/03 11:25:49;;;;;;;1.08;0.30;;;26.00;68.90;;;;;;5025347;28;20032;-90
2022/07/03 11:28:33;;;;;;;1.92;0.50;;;25.90;66.60;;;;;;5029066;28;20072;-90
2022/07/03 11:31:08;;;;;;;1.85;0.30;;;26.00;65.40;;;;;;5017652;28;20108;-89
2022/07/03 11:33:53;;;;;;;2.47;0.47;;;26.00;66.00;;;;;;5022476;28;20029;-90
2022/07/03 11:36:22;;;;;;;1.58;0.40;;;26.10;66.90;;;;;;5018715;28;20041;-89
2022/07/03 11:39:05;;;;;;;1.33;0.38;;;26.20;66.10;;;;;;5024001;28;20034;-90
2022/07/03 11:41:34;;;;;;;1.92;0.35;;;26.20;65.90;;;;;;5019464;28;20056;-91
2022/07/03 11:44:02;;;;;;;1.58;0.45;;;26.20;66.60;;;;;;5014441;28;20641;-89
2022/07/03 11:46:30;;;;;;;2.22;0.40;;;26.20;66.20;;;;;;5020789;28;20032;-90
2022/07/03 11:49:08;;;;;;;1.73;0.40;;;26.30;66.60;;;;;;5023581;28;20068;-90
2022/07/03 11:51:35;;;;;;;1.95;0.50;;;26.30;66.40;;;;;;5020294;28;20045;-90
2022/07/03 11:54:01;;;;;;;1.17;0.50;;;26.20;67.40;;;;;;5029444;28;20032;-90
2022/07/03 11:56:28;;;;;;;0.95;0.47;;;26.40;67.30;;;;;;5023784;28;20030;-90
2022/07/03 11:58:59;;;;;;;0.88;0.30;;;26.50;66.10;;;;;;5035595;28;20025;-90
2022/07/03 12:01:27;;;;;;;;;;;26.50;65.90;;;;;;5034514;28;20030;-89
2022/07/03 12:04:02;;;;;;;3.95;0.80;;;26.60;67.20;;;;;;5033932;28;19955;-90
2022/07/03 12:06:48;;;;;;;2.90;1.10;;;26.70;67.50;;;;;;5023830;28;20049;-90
2022/07/03 12:09:23;;;;;;;2.22;1.02;;;26.70;66.40;;;;;;5021308;28;20105;-90
2022/07/03 12:11:53;;;;;;;1.52;0.60;;;26.80;66.90;;;;;;5020496;28;20030;-90
2022/07/03 12:14:33;;;;;;;0.70;0.35;;;26.80;66.40;;;;;;5028735;28;20113;-89
2022/07/03 12:16:58;;;;;;;0.77;0.30;;;26.90;66.30;;;;;;5018667;28;20034;-89
2022/07/03 12:19:24;;;;;;;1.15;0.40;;;26.90;65.60;;;;;;5025686;28;20026;-90
2022/07/03 12:21:49;;;;;;;1.70;0.40;;;27.00;65.60;;;;;;5025342;28;20359;-89
2022/07/03 12:24:15;;;;;;;1.48;0.50;;;27.10;65.00;;;;;;5012742;28;20140;-90
2022/07/03 12:26:41;;;;;;;2.97;0.70;;;27.10;65.80;;;;;;5021213;28;20493;-90
2022/07/03 12:29:13;;;;;;;1.00;0.40;;;27.20;63.70;;;;;;5025473;28;20022;-90
2022/07/03 12:31:40;;;;;;;1.17;0.40;;;27.10;64.50;;;;;;5016539;28;20114;-90
2022/07/03 12:34:06;;;;;;;1.70;0.40;;;27.20;64.80;;;;;;5013204;28;20032;-89
2022/07/03 12:36:32;;;;;;;0.70;0.50;;;27.30;65.20;;;;;;5012328;28;20426;-90
2022/07/03 12:38:59;;;;;;;1.75;0.50;;;27.30;64.90;;;;;;5015433;28;20021;-90
2022/07/03 12:41:26;;;;;;;3.20;0.80;;;27.50;64.60;;;;;;5025206;28;20149;-90
2022/07/03 12:43:53;;;;;;;0.57;0.52;;;27.50;63.90;;;;;;5011928;28;21455;-90
2022/07/03 12:46:28;;;;;;;2.17;0.65;;;27.60;63.00;;;;;;5022740;28;20057;-89
2022/07/03 12:48:59;;;;;;;2.53;0.60;;;27.60;64.50;;;;;;5021750;28;20045;-89
2022/07/03 12:51:53;;;;;;;1.95;0.80;;;27.80;63.40;;;;;;5015074;28;20105;-90
2022/07/03 12:54:31;;;;;;;0.98;0.30;;;28.10;63.80;;;;;;5022219;28;20064;-90
2022/07/03 13:00:09;;;;;;;2.92;0.55;;;28.40;61.40;;;;;;5016903;28;20056;-90
2022/07/03 13:02:35;;;;;;;1.95;0.68;;;28.60;61.90;;;;;;5030927;28;20048;-89
2022/07/03 13:05:13;;;;;;;0.98;0.40;;;28.70;61.10;;;;;;5014894;28;20030;-89
2022/07/03 13:07:41;;;;;;;1.58;0.40;;;28.90;61.60;;;;;;5015640;28;20057;-90
2022/07/03 13:10:07;;;;;;;3.20;0.77;;;29.00;61.00;;;;;;5026304;28;20060;-90
2022/07/03 13:12:33;;;;;;;2.03;0.52;;;29.30;59.20;;;;;;5026261;28;20034;-90